sensor_id;sensor_type;location;lat;lon;timestamp;P1;durP1;ratioP1;P2;durP2;ratioP2
27269;SDS011;14769;56.934;24.176;2022-10-17T00:00:37;13.25;;;6.95;;
27269;SDS011;14769;56.934;24.176;2022-10-17T00:01:38;14.98;;;7.20;;
27269;SDS011;14769;56.934;24.176;2022-10-17T00:02:40;13.15;;;7.72;;
27269;SDS011;14769;56.934;24.176;2022-10-17T00:03:42;11.70;;;6.75;;
27269;SDS011;14769;56.934;24.176;2022-10-17T00:04:44;14.07;;;6.75;;
27269;SDS011;14769;56.934;24.176;2022-10-17T00:05:46;13.75;;;6.70;;
27269;SDS011;14769;56.934;24.176;2022-10-17T00:06:49;8.05;;;6.13;;
27269;SDS011;14769;56.934;24.176;2022-10-17T00:07:51;13.57;;;6.20;;
27269;SDS011;14769;56.934;24.176;2022-10-17T00:08:53;10.82;;;6.03;;
27269;SDS011;14769;56.934;24.176;2022-10-17T00:09:55;11.45;;;6.03;;
27269;SDS011;14769;56.934;24.176;2022-10-17T00:10:58;7.93;;;5.93;;
27269;SDS011;14769;56.934;24.176;2022-10-17T00:12:01;12.13;;;5.50;;
27269;SDS011;14769;56.934;24.176;2022-10-17T00:13:03;9.40;;;5.90;;
27269;SDS011;14769;56.934;24.176;2022-10-17T00:14:06;12.13;;;6.07;;
27269;SDS011;14769;56.934;24.176;2022-10-17T00:15:08;6.65;;;5.18;;
27269;SDS011;14769;56.934;24.176;2022-10-17T00:16:11;8.27;;;4.90;;
27269;SDS011;14769;56.934;24.176;2022-10-17T00:17:13;12.60;;;5.20;;
27269;SDS011;14769;56.934;24.176;2022-10-17T00:18:15;9.32;;;4.93;;
27269;SDS011;14769;56.934;24.176;2022-10-17T00:19:17;10.27;;;4.82;;
27269;SDS011;14769;56.934;24.176;2022-10-17T00:20:19;8.70;;;4.20;;
27269;SDS011;14769;56.934;24.176;2022-10-17T00:21:21;13.65;;;5.00;;
27269;SDS011;14769;56.934;24.176;2022-10-17T00:22:24;8.73;;;4.63;;
27269;SDS011;14769;56.934;24.176;2022-10-17T00:23:25;9.18;;;4.32;;
27269;SDS011;14769;56.934;24.176;2022-10-17T00:24:29;10.90;;;4.95;;
27269;SDS011;14769;56.934;24.176;2022-10-17T00:25:31;6.97;;;4.32;;
27269;SDS011;14769;56.934;24.176;2022-10-17T00:26:33;12.35;;;4.50;;
27269;SDS011;14769;56.934;24.176;2022-10-17T00:27:36;7.68;;;3.58;;
27269;SDS011;14769;56.934;24.176;2022-10-17T00:28:39;10.45;;;3.90;;
27269;SDS011;14769;56.934;24.176;2022-10-17T00:29:41;11.07;;;4.05;;
27269;SDS011;14769;56.934;24.176;2022-10-17T00:30:42;9.23;;;4.13;;
27269;SDS011;14769;56.934;24.176;2022-10-17T00:31:44;10.93;;;4.00;;
27269;SDS011;14769;56.934;24.176;2022-10-17T00:32:46;10.43;;;3.92;;
27269;SDS011;14769;56.934;24.176;2022-10-17T00:33:48;10.57;;;4.10;;
27269;SDS011;14769;56.934;24.176;2022-10-17T00:34:50;17.10;;;3.60;;
27269;SDS011;14769;56.934;24.176;2022-10-17T00:36:00;11.98;;;3.83;;
27269;SDS011;14769;56.934;24.176;2022-10-17T00:37:16;9.10;;;3.38;;
27269;SDS011;14769;56.934;24.176;2022-10-17T00:38:18;9.93;;;3.92;;
27269;SDS011;14769;56.934;24.176;2022-10-17T00:39:20;14.88;;;4.15;;
27269;SDS011;14769;56.934;24.176;2022-10-17T00:40:21;7.07;;;3.42;;
27269;SDS011;14769;56.934;24.176;2022-10-17T00:41:25;11.77;;;3.65;;
27269;SDS011;14769;56.934;24.176;2022-10-17T00:42:28;13.88;;;3.38;;
27269;SDS011;14769;56.934;24.176;2022-10-17T00:46:25;11.52;;;3.65;;
27269;SDS011;14769;56.934;24.176;2022-10-17T00:47:28;10.52;;;3.38;;
27269;SDS011;14769;56.934;24.176;2022-10-17T00:48:31;10.80;;;3.30;;
27269;SDS011;14769;56.934;24.176;2022-10-17T00:49:33;6.95;;;2.72;;
27269;SDS011;14769;56.934;24.176;2022-10-17T00:50:37;11.90;;;3.47;;
27269;SDS011;14769;56.934;24.176;2022-10-17T00:51:42;7.85;;;3.08;;
27269;SDS011;14769;56.934;24.176;2022-10-17T00:52:56;11.93;;;3.22;;
27269;SDS011;14769;56.934;24.176;2022-10-17T00:54:02;8.13;;;2.85;;
27269;SDS011;14769;56.934;24.176;2022-10-17T00:56:29;10.07;;;2.67;;
27269;SDS011;14769;56.934;24.176;2022-10-17T00:57:32;16.13;;;3.13;;
27269;SDS011;14769;56.934;24.176;2022-10-17T00:58:34;10.73;;;3.13;;
27269;SDS011;14769;56.934;24.176;2022-10-17T00:59:36;10.43;;;2.90;;
27269;SDS011;14769;56.934;24.176;2022-10-17T01:00:40;9.50;;;3.17;;
27269;SDS011;14769;56.934;24.176;2022-10-17T01:01:47;14.48;;;3.42;;
27269;SDS011;14769;56.934;24.176;2022-10-17T01:03:00;8.68;;;2.83;;
27269;SDS011;14769;56.934;24.176;2022-10-17T01:04:02;10.48;;;2.72;;
27269;SDS011;14769;56.934;24.176;2022-10-17T01:05:04;10.82;;;3.47;;
27269;SDS011;14769;56.934;24.176;2022-10-17T01:06:07;10.35;;;2.72;;
27269;SDS011;14769;56.934;24.176;2022-10-17T01:07:09;11.32;;;3.53;;
27269;SDS011;14769;56.934;24.176;2022-10-17T01:08:12;10.18;;;2.72;;
27269;SDS011;14769;56.934;24.176;2022-10-17T01:09:14;10.13;;;2.70;;
27269;SDS011;14769;56.934;24.176;2022-10-17T01:10:16;9.93;;;2.70;;
27269;SDS011;14769;56.934;24.176;2022-10-17T01:11:33;14.45;;;3.35;;
27269;SDS011;14769;56.934;24.176;2022-10-17T01:13:55;11.63;;;2.83;;
27269;SDS011;14769;56.934;24.176;2022-10-17T01:15:26;11.07;;;3.20;;
27269;SDS011;14769;56.934;24.176;2022-10-17T01:16:43;8.88;;;3.17;;
27269;SDS011;14769;56.934;24.176;2022-10-17T01:20:03;12.45;;;2.85;;
27269;SDS011;14769;56.934;24.176;2022-10-17T01:21:55;14.95;;;3.42;;
27269;SDS011;14769;56.934;24.176;2022-10-17T01:23:08;7.47;;;2.10;;
27269;SDS011;14769;56.934;24.176;2022-10-17T01:24:22;10.60;;;3.08;;
27269;SDS011;14769;56.934;24.176;2022-10-17T01:32:31;7.25;;;2.35;;
27269;SDS011;14769;56.934;24.176;2022-10-17T01:34:53;13.43;;;2.60;;
27269;SDS011;14769;56.934;24.176;2022-10-17T01:37:05;14.27;;;3.13;;
27269;SDS011;14769;56.934;24.176;2022-10-17T01:38:17;14.77;;;2.92;;
27269;SDS011;14769;56.934;24.176;2022-10-17T01:39:29;16.08;;;3.85;;
27269;SDS011;14769;56.934;24.176;2022-10-17T01:40:42;13.95;;;4.18;;
27269;SDS011;14769;56.934;24.176;2022-10-17T01:41:58;15.85;;;4.15;;
27269;SDS011;14769;56.934;24.176;2022-10-17T01:43:12;18.08;;;3.40;;
27269;SDS011;14769;56.934;24.176;2022-10-17T01:45:39;12.40;;;3.15;;
27269;SDS011;14769;56.934;24.176;2022-10-17T01:46:49;11.27;;;2.92;;
27269;SDS011;14769;56.934;24.176;2022-10-17T01:47:53;16.15;;;3.20;;
27269;SDS011;14769;56.934;24.176;2022-10-17T01:49:00;12.43;;;3.97;;
27269;SDS011;14769;56.934;24.176;2022-10-17T01:50:09;10.68;;;2.83;;
27269;SDS011;14769;56.934;24.176;2022-10-17T01:51:21;11.77;;;2.92;;
27269;SDS011;14769;56.934;24.176;2022-10-17T01:52:29;16.17;;;3.10;;
27269;SDS011;14769;56.934;24.176;2022-10-17T01:53:39;9.82;;;2.97;;
27269;SDS011;14769;56.934;24.176;2022-10-17T01:54:56;11.77;;;3.22;;
27269;SDS011;14769;56.934;24.176;2022-10-17T01:56:03;10.27;;;2.85;;
27269;SDS011;14769;56.934;24.176;2022-10-17T01:57:28;14.50;;;3.45;;
27269;SDS011;14769;56.934;24.176;2022-10-17T01:58:44;14.85;;;3.65;;
27269;SDS011;14769;56.934;24.176;2022-10-17T01:59:51;13.48;;;3.28;;
27269;SDS011;14769;56.934;24.176;2022-10-17T02:00:55;12.38;;;3.15;;
27269;SDS011;14769;56.934;24.176;2022-10-17T02:02:01;10.40;;;2.90;;
27269;SDS011;14769;56.934;24.176;2022-10-17T02:03:05;13.50;;;3.15;;
27269;SDS011;14769;56.934;24.176;2022-10-17T02:04:09;11.38;;;3.30;;
27269;SDS011;14769;56.934;24.176;2022-10-17T02:05:11;13.85;;;3.03;;
27269;SDS011;14769;56.934;24.176;2022-10-17T02:06:14;11.50;;;2.97;;
27269;SDS011;14769;56.934;24.176;2022-10-17T02:07:16;12.38;;;3.20;;
27269;SDS011;14769;56.934;24.176;2022-10-17T02:08:28;10.60;;;3.05;;
27269;SDS011;14769;56.934;24.176;2022-10-17T02:09:47;6.57;;;2.78;;
27269;SDS011;14769;56.934;24.176;2022-10-17T02:10:53;10.80;;;2.75;;
27269;SDS011;14769;56.934;24.176;2022-10-17T02:16:34;13.27;;;2.72;;
27269;SDS011;14769;56.934;24.176;2022-10-17T02:17:57;13.80;;;2.80;;
27269;SDS011;14769;56.934;24.176;2022-10-17T02:20:53;11.32;;;2.90;;
27269;SDS011;14769;56.934;24.176;2022-10-17T02:26:31;16.02;;;3.28;;
27269;SDS011;14769;56.934;24.176;2022-10-17T02:27:56;10.85;;;3.05;;
27269;SDS011;14769;56.934;24.176;2022-10-17T02:29:05;13.27;;;3.20;;
27269;SDS011;14769;56.934;24.176;2022-10-17T02:31:48;12.80;;;3.05;;
27269;SDS011;14769;56.934;24.176;2022-10-17T02:32:59;11.35;;;2.97;;
27269;SDS011;14769;56.934;24.176;2022-10-17T02:35:27;9.70;;;2.65;;
27269;SDS011;14769;56.934;24.176;2022-10-17T02:36:37;9.13;;;2.35;;
27269;SDS011;14769;56.934;24.176;2022-10-17T02:37:42;11.60;;;2.70;;
27269;SDS011;14769;56.934;24.176;2022-10-17T02:38:46;14.38;;;3.50;;
27269;SDS011;14769;56.934;24.176;2022-10-17T02:39:50;10.02;;;2.83;;
27269;SDS011;14769;56.934;24.176;2022-10-17T02:40:54;11.05;;;3.20;;
27269;SDS011;14769;56.934;24.176;2022-10-17T02:41:56;11.57;;;2.65;;
27269;SDS011;14769;56.934;24.176;2022-10-17T02:43:02;12.43;;;2.92;;
27269;SDS011;14769;56.934;24.176;2022-10-17T02:44:04;12.77;;;3.03;;
27269;SDS011;14769;56.934;24.176;2022-10-17T02:45:07;13.35;;;3.25;;
27269;SDS011;14769;56.934;24.176;2022-10-17T02:46:11;10.88;;;3.13;;
27269;SDS011;14769;56.934;24.176;2022-10-17T02:47:22;15.18;;;2.83;;
27269;SDS011;14769;56.934;24.176;2022-10-17T02:48:50;15.40;;;2.85;;
27269;SDS011;14769;56.934;24.176;2022-10-17T02:49:56;12.98;;;3.85;;
27269;SDS011;14769;56.934;24.176;2022-10-17T02:51:04;12.15;;;3.42;;
27269;SDS011;14769;56.934;24.176;2022-10-17T02:52:14;13.32;;;3.30;;
27269;SDS011;14769;56.934;24.176;2022-10-17T02:53:24;8.80;;;2.80;;
27269;SDS011;14769;56.934;24.176;2022-10-17T02:55:59;15.27;;;3.17;;
27269;SDS011;14769;56.934;24.176;2022-10-17T02:57:16;14.60;;;3.35;;
27269;SDS011;14769;56.934;24.176;2022-10-17T02:58:27;11.43;;;2.83;;
27269;SDS011;14769;56.934;24.176;2022-10-17T02:59:33;8.68;;;3.00;;
27269;SDS011;14769;56.934;24.176;2022-10-17T03:00:37;10.25;;;3.00;;
27269;SDS011;14769;56.934;24.176;2022-10-17T03:01:40;13.48;;;3.17;;
27269;SDS011;14769;56.934;24.176;2022-10-17T03:02:46;11.48;;;2.75;;
27269;SDS011;14769;56.934;24.176;2022-10-17T03:04:03;15.25;;;3.53;;
27269;SDS011;14769;56.934;24.176;2022-10-17T03:05:10;12.38;;;2.88;;
27269;SDS011;14769;56.934;24.176;2022-10-17T03:06:15;12.30;;;2.90;;
27269;SDS011;14769;56.934;24.176;2022-10-17T03:07:18;12.05;;;2.80;;
27269;SDS011;14769;56.934;24.176;2022-10-17T03:08:20;9.80;;;3.00;;
27269;SDS011;14769;56.934;24.176;2022-10-17T03:09:22;12.68;;;3.28;;
27269;SDS011;14769;56.934;24.176;2022-10-17T03:10:24;12.02;;;3.08;;
27269;SDS011;14769;56.934;24.176;2022-10-17T03:11:26;13.00;;;3.05;;
27269;SDS011;14769;56.934;24.176;2022-10-17T03:12:29;12.82;;;2.67;;
27269;SDS011;14769;56.934;24.176;2022-10-17T03:13:31;14.20;;;2.92;;
27269;SDS011;14769;56.934;24.176;2022-10-17T03:14:37;10.05;;;2.80;;
27269;SDS011;14769;56.934;24.176;2022-10-17T03:15:39;14.60;;;3.08;;
27269;SDS011;14769;56.934;24.176;2022-10-17T03:16:41;13.45;;;2.97;;
27269;SDS011;14769;56.934;24.176;2022-10-17T03:17:43;10.27;;;3.00;;
27269;SDS011;14769;56.934;24.176;2022-10-17T03:18:46;14.65;;;2.95;;
27269;SDS011;14769;56.934;24.176;2022-10-17T03:19:50;11.15;;;3.67;;
27269;SDS011;14769;56.934;24.176;2022-10-17T03:20:52;17.17;;;4.88;;
27269;SDS011;14769;56.934;24.176;2022-10-17T03:21:54;15.68;;;5.55;;
27269;SDS011;14769;56.934;24.176;2022-10-17T03:22:56;15.38;;;6.05;;
27269;SDS011;14769;56.934;24.176;2022-10-17T03:23:58;15.77;;;6.40;;
27269;SDS011;14769;56.934;24.176;2022-10-17T03:25:00;17.35;;;5.75;;
27269;SDS011;14769;56.934;24.176;2022-10-17T03:26:03;23.50;;;5.45;;
27269;SDS011;14769;56.934;24.176;2022-10-17T03:27:05;15.95;;;5.10;;
27269;SDS011;14769;56.934;24.176;2022-10-17T03:28:08;15.77;;;4.82;;
27269;SDS011;14769;56.934;24.176;2022-10-17T03:29:12;13.80;;;4.32;;
27269;SDS011;14769;56.934;24.176;2022-10-17T03:30:14;16.48;;;3.90;;
27269;SDS011;14769;56.934;24.176;2022-10-17T03:31:16;12.30;;;3.47;;
27269;SDS011;14769;56.934;24.176;2022-10-17T03:32:18;10.23;;;3.45;;
27269;SDS011;14769;56.934;24.176;2022-10-17T03:33:21;14.18;;;3.78;;
27269;SDS011;14769;56.934;24.176;2022-10-17T03:34:23;16.65;;;3.35;;
27269;SDS011;14769;56.934;24.176;2022-10-17T03:35:27;12.63;;;3.00;;
27269;SDS011;14769;56.934;24.176;2022-10-17T03:36:29;13.88;;;3.20;;
27269;SDS011;14769;56.934;24.176;2022-10-17T03:37:31;11.45;;;3.10;;
27269;SDS011;14769;56.934;24.176;2022-10-17T03:38:33;12.00;;;2.78;;
27269;SDS011;14769;56.934;24.176;2022-10-17T03:39:35;13.07;;;2.95;;
27269;SDS011;14769;56.934;24.176;2022-10-17T03:40:37;11.18;;;2.70;;
27269;SDS011;14769;56.934;24.176;2022-10-17T03:41:39;13.40;;;2.72;;
27269;SDS011;14769;56.934;24.176;2022-10-17T03:42:41;12.80;;;2.90;;
27269;SDS011;14769;56.934;24.176;2022-10-17T03:43:43;8.73;;;2.75;;
27269;SDS011;14769;56.934;24.176;2022-10-17T03:44:44;16.17;;;3.25;;
27269;SDS011;14769;56.934;24.176;2022-10-17T03:45:46;13.48;;;3.22;;
27269;SDS011;14769;56.934;24.176;2022-10-17T03:46:48;10.60;;;2.60;;
27269;SDS011;14769;56.934;24.176;2022-10-17T03:47:50;14.63;;;2.90;;
27269;SDS011;14769;56.934;24.176;2022-10-17T03:48:52;15.68;;;3.00;;
27269;SDS011;14769;56.934;24.176;2022-10-17T03:49:54;11.70;;;2.80;;
27269;SDS011;14769;56.934;24.176;2022-10-17T03:50:59;12.35;;;2.78;;
27269;SDS011;14769;56.934;24.176;2022-10-17T03:52:03;16.60;;;3.00;;
27269;SDS011;14769;56.934;24.176;2022-10-17T03:53:04;16.25;;;2.85;;
27269;SDS011;14769;56.934;24.176;2022-10-17T03:54:06;14.82;;;3.00;;
27269;SDS011;14769;56.934;24.176;2022-10-17T03:55:08;8.98;;;2.58;;
27269;SDS011;14769;56.934;24.176;2022-10-17T03:56:14;11.68;;;2.70;;
27269;SDS011;14769;56.934;24.176;2022-10-17T03:57:18;18.05;;;3.08;;
27269;SDS011;14769;56.934;24.176;2022-10-17T03:58:21;12.75;;;2.60;;
27269;SDS011;14769;56.934;24.176;2022-10-17T03:59:23;11.38;;;2.97;;
27269;SDS011;14769;56.934;24.176;2022-10-17T04:00:25;18.83;;;3.30;;
27269;SDS011;14769;56.934;24.176;2022-10-17T04:01:27;15.45;;;3.47;;
27269;SDS011;14769;56.934;24.176;2022-10-17T04:02:29;13.10;;;3.03;;
27269;SDS011;14769;56.934;24.176;2022-10-17T04:03:31;12.48;;;3.13;;
27269;SDS011;14769;56.934;24.176;2022-10-17T04:04:33;18.25;;;3.50;;
27269;SDS011;14769;56.934;24.176;2022-10-17T04:05:35;16.33;;;3.35;;
27269;SDS011;14769;56.934;24.176;2022-10-17T04:06:37;15.68;;;3.35;;
27269;SDS011;14769;56.934;24.176;2022-10-17T04:07:39;11.93;;;3.13;;
27269;SDS011;14769;56.934;24.176;2022-10-17T04:08:40;13.25;;;3.20;;
27269;SDS011;14769;56.934;24.176;2022-10-17T04:09:43;18.50;;;3.22;;
27269;SDS011;14769;56.934;24.176;2022-10-17T04:10:45;19.30;;;3.20;;
27269;SDS011;14769;56.934;24.176;2022-10-17T04:11:47;15.38;;;3.33;;
27269;SDS011;14769;56.934;24.176;2022-10-17T04:12:48;12.13;;;2.95;;
27269;SDS011;14769;56.934;24.176;2022-10-17T04:13:53;19.58;;;3.17;;
27269;SDS011;14769;56.934;24.176;2022-10-17T04:14:57;14.82;;;2.95;;
27269;SDS011;14769;56.934;24.176;2022-10-17T04:16:00;22.88;;;3.08;;
27269;SDS011;14769;56.934;24.176;2022-10-17T04:17:06;15.52;;;3.28;;
27269;SDS011;14769;56.934;24.176;2022-10-17T04:18:08;15.55;;;3.20;;
27269;SDS011;14769;56.934;24.176;2022-10-17T04:19:10;9.10;;;2.50;;
27269;SDS011;14769;56.934;24.176;2022-10-17T04:20:13;13.98;;;2.78;;
27269;SDS011;14769;56.934;24.176;2022-10-17T04:21:15;12.75;;;2.63;;
27269;SDS011;14769;56.934;24.176;2022-10-17T04:22:18;13.35;;;3.72;;
27269;SDS011;14769;56.934;24.176;2022-10-17T04:23:20;21.48;;;3.55;;
27269;SDS011;14769;56.934;24.176;2022-10-17T04:24:23;16.05;;;3.20;;
27269;SDS011;14769;56.934;24.176;2022-10-17T04:25:26;12.63;;;3.10;;
27269;SDS011;14769;56.934;24.176;2022-10-17T04:26:28;12.10;;;2.78;;
27269;SDS011;14769;56.934;24.176;2022-10-17T04:27:31;20.30;;;3.00;;
27269;SDS011;14769;56.934;24.176;2022-10-17T04:28:33;13.90;;;3.00;;
27269;SDS011;14769;56.934;24.176;2022-10-17T04:29:39;19.58;;;3.50;;
27269;SDS011;14769;56.934;24.176;2022-10-17T04:30:41;11.50;;;2.75;;
27269;SDS011;14769;56.934;24.176;2022-10-17T04:31:45;14.75;;;3.08;;
27269;SDS011;14769;56.934;24.176;2022-10-17T04:32:47;11.88;;;2.75;;
27269;SDS011;14769;56.934;24.176;2022-10-17T04:33:49;16.15;;;3.38;;
27269;SDS011;14769;56.934;24.176;2022-10-17T04:34:51;14.63;;;2.72;;
27269;SDS011;14769;56.934;24.176;2022-10-17T04:35:56;15.65;;;2.83;;
27269;SDS011;14769;56.934;24.176;2022-10-17T04:36:59;14.63;;;3.53;;
27269;SDS011;14769;56.934;24.176;2022-10-17T04:38:01;18.67;;;3.28;;
27269;SDS011;14769;56.934;24.176;2022-10-17T04:39:02;13.50;;;3.10;;
27269;SDS011;14769;56.934;24.176;2022-10-17T04:40:06;17.33;;;3.15;;
27269;SDS011;14769;56.934;24.176;2022-10-17T04:41:09;21.83;;;3.53;;
27269;SDS011;14769;56.934;24.176;2022-10-17T04:42:13;17.42;;;2.63;;
27269;SDS011;14769;56.934;24.176;2022-10-17T04:43:14;17.83;;;3.33;;
27269;SDS011;14769;56.934;24.176;2022-10-17T04:44:16;12.43;;;2.80;;
27269;SDS011;14769;56.934;24.176;2022-10-17T04:45:18;11.75;;;3.63;;
27269;SDS011;14769;56.934;24.176;2022-10-17T04:46:20;21.50;;;3.83;;
27269;SDS011;14769;56.934;24.176;2022-10-17T04:47:22;23.73;;;3.30;;
27269;SDS011;14769;56.934;24.176;2022-10-17T04:48:24;23.67;;;3.78;;
27269;SDS011;14769;56.934;24.176;2022-10-17T04:49:26;18.13;;;3.47;;
27269;SDS011;14769;56.934;24.176;2022-10-17T04:50:28;13.93;;;3.40;;
27269;SDS011;14769;56.934;24.176;2022-10-17T04:51:30;21.08;;;3.35;;
27269;SDS011;14769;56.934;24.176;2022-10-17T04:52:33;19.38;;;3.33;;
27269;SDS011;14769;56.934;24.176;2022-10-17T04:53:38;17.42;;;3.47;;
27269;SDS011;14769;56.934;24.176;2022-10-17T04:54:41;15.90;;;3.42;;
27269;SDS011;14769;56.934;24.176;2022-10-17T04:55:43;15.70;;;3.47;;
27269;SDS011;14769;56.934;24.176;2022-10-17T04:56:45;17.10;;;3.28;;
27269;SDS011;14769;56.934;24.176;2022-10-17T04:57:47;15.43;;;2.85;;
27269;SDS011;14769;56.934;24.176;2022-10-17T04:58:49;20.42;;;3.47;;
27269;SDS011;14769;56.934;24.176;2022-10-17T04:59:51;18.27;;;3.60;;
27269;SDS011;14769;56.934;24.176;2022-10-17T05:00:53;22.50;;;4.15;;
27269;SDS011;14769;56.934;24.176;2022-10-17T05:01:55;17.88;;;3.35;;
27269;SDS011;14769;56.934;24.176;2022-10-17T05:02:57;21.05;;;4.18;;
27269;SDS011;14769;56.934;24.176;2022-10-17T05:03:58;21.10;;;3.58;;
27269;SDS011;14769;56.934;24.176;2022-10-17T05:05:00;19.17;;;3.90;;
27269;SDS011;14769;56.934;24.176;2022-10-17T05:06:05;16.60;;;2.80;;
27269;SDS011;14769;56.934;24.176;2022-10-17T05:07:09;24.85;;;4.47;;
27269;SDS011;14769;56.934;24.176;2022-10-17T05:08:11;16.73;;;3.53;;
27269;SDS011;14769;56.934;24.176;2022-10-17T05:09:13;23.85;;;3.58;;
27269;SDS011;14769;56.934;24.176;2022-10-17T05:10:16;14.55;;;3.28;;
27269;SDS011;14769;56.934;24.176;2022-10-17T05:11:22;21.45;;;3.42;;
27269;SDS011;14769;56.934;24.176;2022-10-17T05:12:25;20.10;;;4.38;;
27269;SDS011;14769;56.934;24.176;2022-10-17T05:13:27;16.50;;;3.05;;
27269;SDS011;14769;56.934;24.176;2022-10-17T05:14:29;14.40;;;2.80;;
27269;SDS011;14769;56.934;24.176;2022-10-17T05:15:31;19.42;;;3.53;;
27269;SDS011;14769;56.934;24.176;2022-10-17T05:16:33;17.88;;;3.88;;
27269;SDS011;14769;56.934;24.176;2022-10-17T05:17:36;13.90;;;3.40;;
27269;SDS011;14769;56.934;24.176;2022-10-17T05:18:37;25.08;;;4.70;;
27269;SDS011;14769;56.934;24.176;2022-10-17T05:19:39;17.38;;;3.17;;
27269;SDS011;14769;56.934;24.176;2022-10-17T05:20:41;20.95;;;3.15;;
27269;SDS011;14769;56.934;24.176;2022-10-17T05:21:43;19.70;;;3.45;;
27269;SDS011;14769;56.934;24.176;2022-10-17T05:22:45;21.10;;;3.92;;
27269;SDS011;14769;56.934;24.176;2022-10-17T05:23:47;13.82;;;3.50;;
27269;SDS011;14769;56.934;24.176;2022-10-17T05:24:49;20.02;;;4.03;;
27269;SDS011;14769;56.934;24.176;2022-10-17T05:25:54;17.67;;;3.70;;
27269;SDS011;14769;56.934;24.176;2022-10-17T05:26:56;18.10;;;3.58;;
27269;SDS011;14769;56.934;24.176;2022-10-17T05:27:58;15.48;;;3.00;;
27269;SDS011;14769;56.934;24.176;2022-10-17T05:29:00;19.15;;;3.25;;
27269;SDS011;14769;56.934;24.176;2022-10-17T05:30:03;15.32;;;3.50;;
27269;SDS011;14769;56.934;24.176;2022-10-17T05:31:07;16.42;;;3.05;;
27269;SDS011;14769;56.934;24.176;2022-10-17T05:32:10;14.52;;;3.17;;
27269;SDS011;14769;56.934;24.176;2022-10-17T05:33:12;16.33;;;3.17;;
27269;SDS011;14769;56.934;24.176;2022-10-17T05:34:13;18.83;;;3.30;;
27269;SDS011;14769;56.934;24.176;2022-10-17T05:35:15;18.80;;;3.50;;
27269;SDS011;14769;56.934;24.176;2022-10-17T05:36:17;17.73;;;3.58;;
27269;SDS011;14769;56.934;24.176;2022-10-17T05:37:19;12.00;;;2.80;;
27269;SDS011;14769;56.934;24.176;2022-10-17T05:38:21;15.68;;;3.03;;
27269;SDS011;14769;56.934;24.176;2022-10-17T05:39:23;16.85;;;4.07;;
27269;SDS011;14769;56.934;24.176;2022-10-17T05:40:24;21.65;;;3.60;;
27269;SDS011;14769;56.934;24.176;2022-10-17T05:41:26;19.48;;;3.40;;
27269;SDS011;14769;56.934;24.176;2022-10-17T05:42:28;19.65;;;3.47;;
27269;SDS011;14769;56.934;24.176;2022-10-17T05:43:31;20.13;;;4.00;;
27269;SDS011;14769;56.934;24.176;2022-10-17T05:44:34;18.05;;;4.18;;
27269;SDS011;14769;56.934;24.176;2022-10-17T05:45:35;14.52;;;4.00;;
27269;SDS011;14769;56.934;24.176;2022-10-17T05:46:37;19.20;;;4.60;;
27269;SDS011;14769;56.934;24.176;2022-10-17T05:47:39;19.58;;;3.50;;
27269;SDS011;14769;56.934;24.176;2022-10-17T05:48:41;20.65;;;4.80;;
27269;SDS011;14769;56.934;24.176;2022-10-17T05:49:43;18.60;;;3.45;;
27269;SDS011;14769;56.934;24.176;2022-10-17T05:50:59;18.17;;;4.35;;
27269;SDS011;14769;56.934;24.176;2022-10-17T05:52:01;21.20;;;4.45;;
27269;SDS011;14769;56.934;24.176;2022-10-17T05:53:04;24.52;;;3.78;;
27269;SDS011;14769;56.934;24.176;2022-10-17T05:54:06;20.15;;;4.00;;
27269;SDS011;14769;56.934;24.176;2022-10-17T05:55:08;18.70;;;3.88;;
27269;SDS011;14769;56.934;24.176;2022-10-17T05:56:11;17.00;;;3.88;;
27269;SDS011;14769;56.934;24.176;2022-10-17T05:57:13;21.50;;;4.18;;
27269;SDS011;14769;56.934;24.176;2022-10-17T05:58:15;16.77;;;4.05;;
27269;SDS011;14769;56.934;24.176;2022-10-17T05:59:27;19.77;;;4.45;;
27269;SDS011;14769;56.934;24.176;2022-10-17T06:00:29;21.63;;;3.53;;
27269;SDS011;14769;56.934;24.176;2022-10-17T06:01:30;18.48;;;3.35;;
27269;SDS011;14769;56.934;24.176;2022-10-17T06:02:32;24.42;;;4.40;;
27269;SDS011;14769;56.934;24.176;2022-10-17T06:03:34;21.10;;;3.40;;
27269;SDS011;14769;56.934;24.176;2022-10-17T06:04:36;14.05;;;3.95;;
27269;SDS011;14769;56.934;24.176;2022-10-17T06:05:38;18.92;;;3.58;;
27269;SDS011;14769;56.934;24.176;2022-10-17T06:06:40;16.60;;;3.50;;
27269;SDS011;14769;56.934;24.176;2022-10-17T06:07:42;20.80;;;4.13;;
27269;SDS011;14769;56.934;24.176;2022-10-17T06:08:44;18.75;;;3.90;;
27269;SDS011;14769;56.934;24.176;2022-10-17T06:09:46;18.58;;;4.28;;
27269;SDS011;14769;56.934;24.176;2022-10-17T06:10:48;25.35;;;3.63;;
27269;SDS011;14769;56.934;24.176;2022-10-17T06:11:51;14.60;;;2.75;;
27269;SDS011;14769;56.934;24.176;2022-10-17T06:12:53;11.60;;;3.22;;
27269;SDS011;14769;56.934;24.176;2022-10-17T06:13:55;17.65;;;3.63;;
27269;SDS011;14769;56.934;24.176;2022-10-17T06:14:57;16.58;;;4.00;;
27269;SDS011;14769;56.934;24.176;2022-10-17T06:15:59;18.70;;;3.90;;
27269;SDS011;14769;56.934;24.176;2022-10-17T06:17:01;13.70;;;3.22;;
27269;SDS011;14769;56.934;24.176;2022-10-17T06:18:03;19.10;;;3.72;;
27269;SDS011;14769;56.934;24.176;2022-10-17T06:19:04;17.17;;;4.10;;
27269;SDS011;14769;56.934;24.176;2022-10-17T06:20:07;23.30;;;4.63;;
27269;SDS011;14769;56.934;24.176;2022-10-17T06:21:09;13.35;;;3.42;;
27269;SDS011;14769;56.934;24.176;2022-10-17T06:22:12;17.15;;;4.03;;
27269;SDS011;14769;56.934;24.176;2022-10-17T06:23:14;14.63;;;4.45;;
27269;SDS011;14769;56.934;24.176;2022-10-17T06:24:17;21.40;;;4.65;;
27269;SDS011;14769;56.934;24.176;2022-10-17T06:25:18;19.27;;;4.55;;
27269;SDS011;14769;56.934;24.176;2022-10-17T06:26:20;22.25;;;4.93;;
27269;SDS011;14769;56.934;24.176;2022-10-17T06:27:22;14.60;;;3.90;;
27269;SDS011;14769;56.934;24.176;2022-10-17T06:28:24;15.80;;;4.53;;
27269;SDS011;14769;56.934;24.176;2022-10-17T06:29:26;19.60;;;4.18;;
27269;SDS011;14769;56.934;24.176;2022-10-17T06:30:28;26.90;;;5.70;;
27269;SDS011;14769;56.934;24.176;2022-10-17T06:31:30;19.25;;;4.38;;
27269;SDS011;14769;56.934;24.176;2022-10-17T06:32:32;23.75;;;5.35;;
27269;SDS011;14769;56.934;24.176;2022-10-17T06:33:34;22.52;;;4.60;;
27269;SDS011;14769;56.934;24.176;2022-10-17T06:34:36;23.90;;;4.88;;
27269;SDS011;14769;56.934;24.176;2022-10-17T06:35:38;20.92;;;4.22;;
27269;SDS011;14769;56.934;24.176;2022-10-17T06:36:40;24.08;;;3.97;;
27269;SDS011;14769;56.934;24.176;2022-10-17T06:37:42;21.45;;;4.43;;
27269;SDS011;14769;56.934;24.176;2022-10-17T06:38:44;21.48;;;4.22;;
27269;SDS011;14769;56.934;24.176;2022-10-17T06:39:46;15.18;;;3.55;;
27269;SDS011;14769;56.934;24.176;2022-10-17T06:40:48;20.00;;;3.47;;
27269;SDS011;14769;56.934;24.176;2022-10-17T06:41:50;15.48;;;3.30;;
27269;SDS011;14769;56.934;24.176;2022-10-17T06:42:52;17.45;;;3.88;;
27269;SDS011;14769;56.934;24.176;2022-10-17T06:43:54;18.30;;;3.80;;
27269;SDS011;14769;56.934;24.176;2022-10-17T06:44:55;18.10;;;3.30;;
27269;SDS011;14769;56.934;24.176;2022-10-17T06:45:57;14.40;;;2.92;;
27269;SDS011;14769;56.934;24.176;2022-10-17T06:46:59;17.50;;;3.30;;
27269;SDS011;14769;56.934;24.176;2022-10-17T06:48:01;15.65;;;3.97;;
27269;SDS011;14769;56.934;24.176;2022-10-17T06:49:03;14.40;;;3.55;;
27269;SDS011;14769;56.934;24.176;2022-10-17T06:50:06;16.38;;;2.83;;